Bennett, New Mexico
Current Conditions -  °F | °C
As of 10:53 PM on Tuesday 21 Oct 2014 (Local Time) from KINK Reporting Station
Overcast Overcast  
Wind Chill: 65°   Ceiling: 7000
Heat Index: 65°   Visibility: 10mi
Dew Point: 62°   Wind: 6mph
Humidity: 90%   Direction: 130°SE
Pressure: 30.06"   Gusts: NA
Location:  32.2207°N, 103.425°W
Report Text: KINK 220453Z AUTO 13005KT 10SM OVC070 18/17 A3006 RMK AO2 SLP145 T01830167
Loading
Personal Weather Stations






























Interactive Weather Map
Tropical Storm Tracking
New forecast layout! Learn more

10-Day Weather Forecast

Advertisements
Track Severe Weather on mobile